Currie, North Carolina
Current Conditions -  °F | °C
As of 2:53 AM on Wednesday 26 Nov 2014 (Local Time) from KILM Reporting Station
Haze Haze  
Wind Chill: 63°   Ceiling: 200
Heat Index: 63°   Visibility: 3mi
Dew Point: 63°   Wind: 7mph
Humidity: 100%   Direction: 60°ENE
Pressure: 29.81"   Gusts: NA
Location:  34.46°N, 78.1°W
Report Text: KILM 260753Z 06006KT 3SM BR OVC002 17/17 A2981 RMK AO2 SLP093 T01720172
Loading
Personal Weather Stations






























Interactive Weather Map New forecast layout! Learn more

10-Day Weather Forecast

Advertisements
Track Severe Weather on mobile